Time;durP1;ratioP1;P1;durP2;ratioP2;P2;SDS_P1;SDS_P2;PMS_P1;PMS_P2;Temp;Humidity;BMP_temperature;BMP_pressure;BME280_temperature;BME280_humidity;BME280_pressure;Samples;Min_cycle;Max_cycle;Signal;HPM_P1;HPM_P2
2022/06/17 00:01:44;;;;;;;10.70;9.70;;;12.80;83.50;;;;;;5090047;28;20138;-44
2022/06/17 00:04:12;;;;;;;;;;;12.70;83.60;;;;;;5090641;28;20318;-43
2022/06/17 00:06:58;;;;;;;10.35;9.27;;;12.60;83.50;;;;;;5072229;28;19908;-44
2022/06/17 00:09:28;;;;;;;10.35;9.35;;;12.60;83.80;;;;;;5090071;28;20093;-44
2022/06/17 00:11:55;;;;;;;12.65;10.00;;;12.60;83.70;;;;;;5071820;28;20028;-43
2022/06/17 00:14:31;;;;;;;12.57;10.52;;;12.50;84.00;;;;;;5096131;28;20103;-42
2022/06/17 00:17:02;;;;;;;12.32;10.25;;;12.50;84.30;;;;;;5094635;28;20348;-46
2022/06/17 00:19:29;;;;;;;14.18;10.05;;;12.50;84.40;;;;;;5089325;28;20103;-44
2022/06/17 00:21:56;;;;;;;10.60;9.50;;;12.40;84.50;;;;;;5089687;28;20028;-43
2022/06/17 00:24:26;;;;;;;12.95;11.43;;;12.40;84.70;;;;;;5079202;28;20113;-43
2022/06/17 00:26:54;;;;;;;11.30;9.73;;;12.40;84.70;;;;;;5110080;28;20011;-43
2022/06/17 00:29:31;;;;;;;11.73;10.40;;;12.40;84.70;;;;;;5086521;28;20475;-44
2022/06/17 00:31:59;;;;;;;11.27;10.18;;;12.40;84.60;;;;;;5095889;28;20456;-43
2022/06/17 00:34:27;;;;;;;11.63;10.18;;;12.40;84.40;;;;;;5078185;28;20019;-43
2022/06/17 00:36:58;;;;;;;14.20;11.65;;;12.40;84.50;;;;;;5109849;28;20333;-43
2022/06/17 00:39:29;;;;;;;12.52;9.77;;;12.40;84.40;;;;;;5102494;28;20039;-44
2022/06/17 00:42:05;;;;;;;11.52;10.25;;;12.40;84.50;;;;;;5099708;28;20023;-44
2022/06/17 00:45:00;;;;;;;11.85;10.23;;;12.40;84.70;;;;;;5101828;28;20024;-43
2022/06/17 00:47:37;;;;;;;13.13;11.75;;;12.40;84.80;;;;;;5089053;28;20059;-44
2022/06/17 00:50:42;;;;;;;13.18;10.63;;;12.30;84.70;;;;;;5093430;28;20398;-44
2022/06/17 00:53:29;;;;;;;12.45;10.40;;;12.40;84.70;;;;;;5109434;28;20067;-44
2022/06/17 00:56:29;;;;;;;11.93;9.95;;;12.40;84.60;;;;;;5090895;28;20024;-44
2022/06/17 00:59:07;;;;;;;11.23;10.13;;;12.40;84.80;;;;;;5034824;28;20041;-44
2022/06/17 01:01:40;;;;;;;12.55;11.00;;;12.30;84.80;;;;;;5071042;28;20089;-42
2022/06/17 01:04:10;;;;;;;13.15;11.75;;;12.40;84.80;;;;;;5088411;28;20529;-44
2022/06/17 01:06:43;;;;;;;13.95;11.75;;;12.40;84.70;;;;;;5071015;28;20028;-43
2022/06/17 01:12:04;;;;;;;14.43;10.88;;;12.30;84.50;;;;;;5099539;28;20039;-44
2022/06/17 01:14:33;;;;;;;12.77;11.38;;;12.30;84.70;;;;;;5088735;28;20058;-43
2022/06/17 01:17:02;;;;;;;14.48;11.77;;;12.30;84.80;;;;;;5087633;28;20047;-44
2022/06/17 01:19:49;;;;;;;13.93;11.07;;;12.20;84.70;;;;;;5107385;28;20040;-43
2022/06/17 01:22:29;;;;;;;12.35;11.05;;;12.30;84.50;;;;;;5089023;28;20038;-44
2022/06/17 01:25:31;;;;;;;12.48;11.18;;;12.30;84.70;;;;;;5089219;28;20044;-43
2022/06/17 01:28:01;;;;;;;14.77;12.68;;;12.30;84.70;;;;;;5089237;28;20344;-42
2022/06/17 01:30:56;;;;;;;13.02;11.73;;;12.30;84.80;;;;;;5095703;28;20024;-42
2022/06/17 01:33:29;;;;;;;12.70;11.23;;;12.20;84.80;;;;;;5109259;28;20032;-44
2022/06/17 01:36:12;;;;;;;12.25;11.02;;;12.30;84.70;;;;;;5113537;28;20030;-42
2022/06/17 01:38:42;;;;;;;12.90;11.05;;;12.20;84.80;;;;;;5090388;28;20026;-43
2022/06/17 01:41:09;;;;;;;13.73;12.32;;;12.20;84.80;;;;;;5113452;28;20444;-42
2022/06/17 01:43:51;;;;;;;14.18;12.68;;;12.20;84.70;;;;;;5091218;28;20046;-42
2022/06/17 01:46:22;;;;;;;13.65;12.20;;;12.20;84.90;;;;;;5094091;28;20032;-42
2022/06/17 01:48:59;;;;;;;14.30;12.90;;;12.10;84.80;;;;;;5070988;28;20027;-43
2022/06/17 01:51:28;;;;;;;14.52;13.00;;;12.00;85.10;;;;;;5085818;28;20089;-42
2022/06/17 01:53:59;;;;;;;14.10;12.15;;;12.00;85.00;;;;;;5109004;28;20036;-43
2022/06/17 01:56:30;;;;;;;15.68;13.45;;;12.00;85.10;;;;;;5094500;28;20021;-44
2022/06/17 01:59:05;;;;;;;13.93;12.48;;;12.00;85.00;;;;;;5088319;28;20024;-42
2022/06/17 02:01:34;;;;;;;16.98;13.55;;;12.00;84.80;;;;;;5118496;27;20083;-43
2022/06/17 02:04:12;;;;;;;12.70;11.30;;;12.00;84.90;;;;;;5116734;27;20031;-42
2022/06/17 02:07:12;;;;;;;15.55;12.38;;;11.90;85.00;;;;;;5117505;27;20035;-42
2022/06/17 02:09:39;;;;;;;13.50;11.50;;;11.90;85.10;;;;;;5114209;27;20032;-43
2022/06/17 02:12:07;;;;;;;12.73;11.52;;;11.90;85.20;;;;;;5105117;27;20030;-42
2022/06/17 02:14:34;;;;;;;12.82;11.55;;;11.90;85.00;;;;;;5095473;28;20153;-42
2022/06/17 02:17:04;;;;;;;13.82;12.43;;;11.90;85.10;;;;;;5111283;28;20360;-42
2022/06/17 02:19:36;;;;;;;15.02;13.35;;;11.90;85.30;;;;;;5110099;28;20819;-43
2022/06/17 02:22:12;;;;;;;13.35;11.50;;;11.90;85.30;;;;;;5092771;28;20043;-45
2022/06/17 02:24:39;;;;;;;13.95;11.88;;;11.90;85.30;;;;;;5091893;28;20046;-42
2022/06/17 02:27:11;;;;;;;14.48;11.48;;;11.90;85.00;;;;;;5091880;28;20031;-42
2022/06/17 02:29:40;;;;;;;12.70;11.50;;;11.90;85.00;;;;;;5074269;28;20032;-42
2022/06/17 02:32:11;;;;;;;14.05;11.27;;;11.90;85.00;;;;;;5094192;28;20016;-42
2022/06/17 02:34:48;;;;;;;12.85;11.60;;;11.90;85.20;;;;;;5110734;28;20024;-42
2022/06/17 02:37:17;;;;;;;13.23;11.90;;;11.90;85.30;;;;;;5091581;28;20027;-42
2022/06/17 02:39:49;;;;;;;14.77;12.65;;;11.90;85.30;;;;;;5075266;28;20055;-42
2022/06/17 02:42:23;;;;;;;15.52;12.07;;;11.90;85.20;;;;;;5093987;28;20035;-42
2022/06/17 02:44:57;;;;;;;15.55;12.93;;;11.90;85.10;;;;;;5106549;28;20091;-42
2022/06/17 02:47:25;;;;;;;13.88;12.18;;;11.90;85.20;;;;;;5093784;28;20028;-41
2022/06/17 02:49:52;;;;;;;13.48;12.10;;;11.90;85.20;;;;;;5110364;28;20436;-42
2022/06/17 02:52:23;;;;;;;14.52;13.02;;;11.90;85.20;;;;;;5111228;28;20135;-42
2022/06/17 02:54:56;;;;;;;14.75;13.23;;;12.00;85.10;;;;;;5091728;28;20074;-41
2022/06/17 02:57:30;;;;;;;14.98;12.25;;;11.90;85.20;;;;;;5111175;28;20015;-43
2022/06/17 03:00:20;;;;;;;14.15;12.73;;;12.00;85.10;;;;;;5088134;28;20066;-41
2022/06/17 03:02:57;;;;;;;15.05;13.57;;;11.90;85.20;;;;;;5072683;28;20028;-41
2022/06/17 03:05:30;;;;;;;16.38;12.35;;;11.90;85.10;;;;;;5093400;28;20024;-41
2022/06/17 03:07:59;;;;;;;13.68;12.30;;;11.90;85.20;;;;;;5090821;28;20027;-41
2022/06/17 03:10:39;;;;;;;14.73;12.65;;;11.90;85.20;;;;;;5090080;28;20452;-42
2022/06/17 03:13:15;;;;;;;14.82;11.55;;;11.90;85.00;;;;;;5090937;28;20048;-43
2022/06/17 03:15:47;;;;;;;15.23;13.63;;;12.00;85.00;;;;;;5082261;28;20047;-41
2022/06/17 03:18:14;;;;;;;15.38;12.80;;;12.00;85.00;;;;;;5111170;28;20055;-42
2022/06/17 03:20:42;;;;;;;14.32;12.82;;;12.00;85.00;;;;;;5106750;28;20031;-42
2022/06/17 03:23:12;;;;;;;15.68;13.90;;;12.00;85.00;;;;;;5111345;28;20031;-42
2022/06/17 03:26:00;;;;;;;15.73;13.00;;;12.00;85.00;;;;;;5080546;28;20066;-41
2022/06/17 03:28:36;;;;;;;14.18;12.80;;;12.00;85.00;;;;;;5090738;28;20031;-41
2022/06/17 03:31:52;;;;;;;16.52;13.25;;;12.00;84.90;;;;;;5090717;28;20067;-42
2022/06/17 03:34:45;;;;;;;15.70;14.00;;;12.00;84.70;;;;;;5067912;28;20119;-42
2022/06/17 03:37:38;;;;;;;17.13;14.55;;;12.10;84.80;;;;;;5108441;28;20028;-45
2022/06/17 03:40:20;;;;;;;20.08;14.77;;;12.10;84.80;;;;;;5084106;28;20356;-41
2022/06/17 03:42:52;;;;;;;15.68;13.55;;;12.10;84.70;;;;;;5090630;28;20077;-43
2022/06/17 03:45:25;;;;;;;14.70;13.15;;;12.10;84.70;;;;;;5094420;28;20027;-43
2022/06/17 03:48:41;;;;;;;14.50;12.45;;;12.10;84.70;;;;;;5110601;28;20019;-41
2022/06/17 03:51:16;;;;;;;17.13;13.07;;;12.10;84.50;;;;;;5001634;28;20030;-42
2022/06/17 03:53:47;;;;;;;14.57;11.95;;;12.20;84.30;;;;;;4990839;28;20523;-41
2022/06/17 03:56:30;;;;;;;14.02;12.57;;;12.20;84.40;;;;;;4991312;28;20102;-41
2022/06/17 03:59:04;;;;;;;15.43;13.93;;;12.20;84.20;;;;;;4999849;28;20447;-42
2022/06/17 04:01:45;;;;;;;13.80;12.50;;;12.30;84.10;;;;;;4982474;28;20030;-41
2022/06/17 04:04:26;;;;;;;13.88;12.32;;;12.30;84.10;;;;;;4984920;28;20030;-43
2022/06/17 04:06:58;;;;;;;16.10;13.02;;;12.30;84.10;;;;;;4990483;28;20110;-42
2022/06/17 04:09:44;;;;;;;15.57;12.50;;;12.30;84.10;;;;;;4995748;28;20042;-41
2022/06/17 04:12:28;;;;;;;16.33;13.20;;;12.40;84.20;;;;;;4998504;28;20386;-43
2022/06/17 04:15:21;;;;;;;13.95;12.55;;;12.40;84.00;;;;;;4992463;28;20038;-41
2022/06/17 04:17:54;;;;;;;15.13;12.10;;;12.50;83.80;;;;;;4995998;28;20080;-42
2022/06/17 04:20:37;;;;;;;12.77;11.40;;;12.50;83.80;;;;;;4995027;28;20074;-41
2022/06/17 04:23:10;;;;;;;13.70;11.65;;;12.60;83.80;;;;;;5079753;28;20322;-42
2022/06/17 04:25:53;;;;;;;13.48;12.18;;;12.70;83.50;;;;;;5075634;28;20032;-41
2022/06/17 04:28:34;;;;;;;12.43;11.23;;;12.70;83.50;;;;;;5088754;28;20020;-43
2022/06/17 04:31:06;;;;;;;13.48;12.10;;;12.80;83.40;;;;;;5084879;28;20028;-43
2022/06/17 04:33:55;;;;;;;12.55;10.98;;;12.90;83.40;;;;;;5109469;28;20023;-42
2022/06/17 04:36:33;;;;;;;12.18;10.65;;;13.00;83.10;;;;;;5092233;28;20020;-42
2022/06/17 04:39:18;;;;;;;15.50;10.90;;;13.20;83.00;;;;;;5098359;28;20063;-42
2022/06/17 04:41:45;;;;;;;12.55;10.68;;;13.20;82.70;;;;;;5087819;28;20024;-44
2022/06/17 04:44:18;;;;;;;13.02;11.32;;;13.40;82.60;;;;;;5088341;28;20073;-42
2022/06/17 04:46:49;;;;;;;11.50;9.60;;;13.40;82.50;;;;;;5097443;28;20456;-43
2022/06/17 04:49:22;;;;;;;14.73;11.57;;;13.50;82.50;;;;;;5109049;28;20028;-45
2022/06/17 04:52:01;;;;;;;10.43;9.43;;;13.50;82.40;;;;;;5099926;28;20359;-45
2022/06/17 04:54:29;;;;;;;12.75;10.23;;;13.60;82.40;;;;;;5048173;28;20041;-43
2022/06/17 04:57:02;;;;;;;11.55;9.98;;;13.60;82.20;;;;;;5048000;28;20513;-43
2022/06/17 04:59:40;;;;;;;12.05;10.52;;;13.70;82.20;;;;;;5047067;28;20021;-42
2022/06/17 05:02:29;;;;;;;12.48;11.27;;;13.80;82.10;;;;;;5048494;28;20052;-44
2022/06/17 05:05:00;;;;;;;12.82;11.52;;;13.90;82.00;;;;;;5061985;28;20049;-43
2022/06/17 05:07:32;;;;;;;13.30;10.02;;;13.90;81.90;;;;;;5048719;28;20033;-43
2022/06/17 05:10:02;;;;;;;16.48;12.40;;;13.90;82.00;;;;;;5047912;28;20442;-43
2022/06/17 05:12:42;;;;;;;11.80;10.63;;;14.00;81.80;;;;;;5047586;28;20041;-44
2022/06/17 05:15:21;;;;;;;13.25;11.95;;;14.20;82.00;;;;;;5048828;28;20017;-43
2022/06/17 05:17:49;;;;;;;15.32;11.77;;;14.20;81.90;;;;;;5067535;28;20115;-45
2022/06/17 05:20:19;;;;;;;13.88;11.38;;;14.30;81.70;;;;;;5061368;28;20021;-43
2022/06/17 05:22:49;;;;;;;14.55;11.77;;;14.50;81.40;;;;;;5062911;28;20037;-43
2022/06/17 05:25:21;;;;;;;13.48;10.95;;;14.60;80.90;;;;;;5067182;28;20025;-44
2022/06/17 05:27:48;;;;;;;12.45;10.98;;;14.80;80.70;;;;;;5068612;28;20113;-43
2022/06/17 05:30:15;;;;;;;13.70;10.68;;;15.10;80.60;;;;;;5062868;28;20095;-44
2022/06/17 05:32:50;;;;;;;12.07;10.93;;;15.30;80.00;;;;;;5061964;28;20035;-46
2022/06/17 05:35:19;;;;;;;12.02;10.60;;;15.70;79.60;;;;;;5050365;28;20100;-44
2022/06/17 05:37:46;;;;;;;19.17;10.48;;;16.10;78.80;;;;;;5054432;28;20052;-45
2022/06/17 05:40:14;;;;;;;14.05;10.20;;;16.60;77.30;;;;;;5072633;28;20017;-46
2022/06/17 05:42:43;;;;;;;10.27;8.43;;;17.20;75.40;;;;;;5070297;28;20457;-45
2022/06/17 05:45:15;;;;;;;11.93;9.13;;;17.90;74.10;;;;;;5072555;28;20143;-46
2022/06/17 05:47:41;;;;;;;8.73;7.82;;;18.20;70.50;;;;;;5052622;28;20123;-47
2022/06/17 05:50:10;;;;;;;10.63;9.00;;;18.40;69.40;;;;;;5067060;28;20058;-47
2022/06/17 05:52:49;;;;;;;8.87;7.97;;;18.40;69.20;;;;;;5093542;27;20043;-45
2022/06/17 05:55:16;;;;;;;11.83;8.23;;;18.40;70.10;;;;;;5122498;27;20023;-46
2022/06/17 05:57:44;;;;;;;9.95;7.68;;;18.40;68.90;;;;;;5121004;27;20713;-48
2022/06/17 06:00:12;;;;;;;8.10;7.05;;;18.30;69.20;;;;;;5119229;27;20032;-48
2022/06/17 06:02:39;;;;;;;9.52;8.10;;;18.20;69.40;;;;;;5107885;27;20082;-47
2022/06/17 06:05:13;;;;;;;8.15;7.35;;;17.90;69.40;;;;;;5103984;28;20024;-47
2022/06/17 06:07:45;;;;;;;10.25;7.43;;;17.90;70.50;;;;;;5109259;27;20056;-46
2022/06/17 06:10:13;;;;;;;9.13;8.02;;;18.00;69.90;;;;;;5115767;27;20040;-47
2022/06/17 06:13:01;;;;;;;8.98;8.07;;;18.00;71.30;;;;;;5099885;27;20035;-47
2022/06/17 06:15:33;;;;;;;8.07;7.28;;;18.00;70.00;;;;;;5112927;27;20062;-45
2022/06/17 06:18:00;;;;;;;8.35;7.30;;;18.20;70.60;;;;;;5111495;27;20056;-46
2022/06/17 06:20:26;;;;;;;9.88;7.07;;;18.10;68.80;;;;;;5098050;28;20050;-47
2022/06/17 06:22:52;;;;;;;10.50;8.00;;;18.10;69.40;;;;;;5102151;28;20023;-51
2022/06/17 06:25:19;;;;;;;9.05;7.78;;;18.10;69.20;;;;;;5108237;28;20359;-45
2022/06/17 06:27:46;;;;;;;13.10;8.18;;;18.10;68.50;;;;;;5075629;28;20036;-45
2022/06/17 06:30:25;;;;;;;11.45;7.10;;;18.10;67.90;;;;;;5091494;28;20032;-45
2022/06/17 06:32:56;;;;;;;10.10;6.97;;;18.20;68.90;;;;;;5099000;28;20132;-47
2022/06/17 06:35:27;;;;;;;8.68;6.25;;;18.20;69.40;;;;;;5101023;28;20043;-47
2022/06/17 06:37:52;;;;;;;8.60;7.72;;;18.40;69.60;;;;;;5090923;28;20040;-45
2022/06/17 06:40:20;;;;;;;9.23;8.30;;;18.50;70.30;;;;;;5093559;28;20024;-45
2022/06/17 06:42:49;;;;;;;11.82;9.40;;;18.60;70.70;;;;;;5084901;28;20026;-46
2022/06/17 06:45:23;;;;;;;10.30;8.45;;;18.70;69.90;;;;;;5095308;28;20333;-45
2022/06/17 06:47:49;;;;;;;11.25;8.45;;;18.80;68.70;;;;;;5106132;28;20125;-46
2022/06/17 06:50:20;;;;;;;9.38;7.95;;;18.80;67.90;;;;;;5101112;28;20040;-46
2022/06/17 06:52:47;;;;;;;11.63;7.45;;;18.70;68.50;;;;;;5093819;28;20055;-45
2022/06/17 06:55:14;;;;;;;8.68;7.80;;;18.60;68.70;;;;;;5101870;28;20023;-45
2022/06/17 06:57:49;;;;;;;9.73;8.73;;;18.60;69.50;;;;;;5098444;28;20103;-47
2022/06/17 07:00:21;;;;;;;13.00;8.95;;;18.60;69.40;;;;;;5098048;28;20035;-46
2022/06/17 07:02:47;;;;;;;9.65;7.90;;;18.60;69.20;;;;;;5096584;28;20030;-44
2022/06/17 07:05:14;;;;;;;14.43;9.77;;;18.50;68.80;;;;;;5098607;28;20024;-46
2022/06/17 07:07:42;;;;;;;10.38;7.72;;;18.50;69.30;;;;;;5100891;28;20028;-46
2022/06/17 07:10:20;;;;;;;13.18;9.38;;;18.50;70.10;;;;;;5093830;28;20445;-49
2022/06/17 07:12:47;;;;;;;10.73;8.15;;;18.50;69.60;;;;;;5119555;27;20038;-48
2022/06/17 07:15:14;;;;;;;15.75;9.20;;;18.50;70.40;;;;;;5117460;27;20022;-45
2022/06/17 07:18:01;;;;;;;15.07;8.50;;;18.50;69.40;;;;;;5108425;27;20024;-46
2022/06/17 07:20:36;;;;;;;11.70;9.10;;;18.50;69.50;;;;;;5111866;27;20516;-46
2022/06/17 07:23:06;;;;;;;13.10;8.70;;;18.60;69.60;;;;;;5119948;27;20034;-46
2022/06/17 07:25:34;;;;;;;9.27;7.40;;;18.60;69.00;;;;;;5095112;28;20028;-48
2022/06/17 07:28:05;;;;;;;9.65;8.35;;;18.60;68.90;;;;;;5110626;27;20033;-46
2022/06/17 07:30:32;;;;;;;8.90;8.05;;;18.70;69.70;;;;;;5095023;28;20036;-46
2022/06/17 07:33:01;;;;;;;9.20;7.97;;;18.80;69.20;;;;;;5103595;28;20344;-47
2022/06/17 07:35:28;;;;;;;11.43;8.48;;;18.90;69.70;;;;;;5107989;27;20028;-46
2022/06/17 07:40:47;;;;;;;13.00;8.65;;;19.30;70.60;;;;;;5107717;27;20099;-48
2022/06/17 07:43:16;;;;;;;10.18;7.50;;;19.40;69.10;;;;;;5125444;27;20038;-45
2022/06/17 07:45:43;;;;;;;7.75;6.38;;;19.40;68.20;;;;;;5108178;27;20024;-46
2022/06/17 07:48:13;;;;;;;8.93;6.45;;;19.60;68.50;;;;;;5090029;28;20069;-45
2022/06/17 07:50:43;;;;;;;7.53;6.78;;;19.80;68.10;;;;;;5114316;27;20034;-45
2022/06/17 07:53:11;;;;;;;9.82;6.85;;;19.80;67.00;;;;;;5121359;27;20042;-47
2022/06/17 07:55:38;;;;;;;11.60;5.70;;;19.80;66.80;;;;;;5107878;27;20038;-46
2022/06/17 07:58:09;;;;;;;8.02;5.93;;;19.90;64.90;;;;;;5115437;27;20377;-46
2022/06/17 08:00:39;;;;;;;6.82;5.38;;;20.00;64.70;;;;;;5104631;27;20031;-45
2022/06/17 08:03:06;;;;;;;7.35;4.95;;;20.20;65.40;;;;;;5115423;27;20110;-46
2022/06/17 08:05:34;;;;;;;10.07;5.35;;;20.20;65.70;;;;;;5100263;27;20054;-48
2022/06/17 08:08:03;;;;;;;8.18;5.22;;;20.40;65.40;;;;;;5094278;27;20072;-49
2022/06/17 08:10:33;;;;;;;7.75;5.43;;;20.40;65.50;;;;;;5120436;27;20031;-49
2022/06/17 08:13:00;;;;;;;7.18;5.15;;;20.50;65.40;;;;;;5100093;27;20142;-46
2022/06/17 08:15:27;;;;;;;6.65;5.22;;;20.40;64.70;;;;;;5116657;27;20036;-45
2022/06/17 08:17:54;;;;;;;8.27;5.95;;;20.50;65.60;;;;;;5071475;28;20024;-46
2022/06/17 08:20:34;;;;;;;7.40;5.07;;;20.60;65.00;;;;;;5089556;28;20027;-45
2022/06/17 08:23:04;;;;;;;6.85;4.82;;;20.70;65.60;;;;;;5088896;28;20113;-45
2022/06/17 08:25:36;;;;;;;9.00;6.20;;;20.90;64.00;;;;;;5088600;28;20024;-47
2022/06/17 08:28:06;;;;;;;10.05;6.55;;;21.00;64.90;;;;;;5089452;28;20040;-46
2022/06/17 08:30:39;;;;;;;11.73;5.85;;;21.00;63.70;;;;;;5071423;28;20044;-45
2022/06/17 08:33:07;;;;;;;8.20;6.32;;;21.20;63.70;;;;;;5109782;28;20050;-46
2022/06/17 08:35:43;;;;;;;10.57;6.88;;;21.20;61.90;;;;;;5107461;28;20152;-45
2022/06/17 08:38:19;;;;;;;8.38;6.82;;;21.40;62.60;;;;;;5112294;27;20027;-46
2022/06/17 08:40:54;;;;;;;10.35;6.70;;;21.40;63.80;;;;;;5087626;28;20415;-46
2022/06/17 08:44:03;;;;;;;9.45;6.50;;;21.70;61.40;;;;;;5091552;28;20443;-47
2022/06/17 08:46:52;;;;;;;7.70;5.82;;;21.70;62.00;;;;;;5062894;28;20108;-47
2022/06/17 08:49:48;;;;;;;9.90;6.40;;;22.00;61.40;;;;;;5118611;27;20024;-48
2022/06/17 08:52:16;;;;;;;9.18;6.82;;;22.00;61.10;;;;;;5020094;28;20073;-48
2022/06/17 08:55:05;;;;;;;6.55;5.20;;;22.00;60.50;;;;;;5067713;28;20037;-46
2022/06/17 08:57:55;;;;;;;9.25;5.85;;;22.10;59.70;;;;;;5068361;28;20017;-46
2022/06/17 09:00:36;;;;;;;7.78;5.60;;;22.40;60.00;;;;;;5079466;28;20349;-46
2022/06/17 09:03:08;;;;;;;8.18;5.32;;;22.60;59.30;;;;;;5079893;28;20052;-48
2022/06/17 09:06:12;;;;;;;9.27;5.28;;;22.70;59.90;;;;;;5091428;28;20040;-46
2022/06/17 09:09:14;;;;;;;7.18;5.40;;;22.60;58.70;;;;;;5084384;28;20342;-47
2022/06/17 09:12:05;;;;;;;8.35;5.60;;;22.40;58.40;;;;;;5070845;28;20039;-46
2022/06/17 09:14:33;;;;;;;8.38;5.75;;;22.50;59.80;;;;;;5071411;28;20036;-47
2022/06/17 09:17:37;;;;;;;8.17;5.30;;;22.30;57.70;;;;;;5085744;28;20162;-46
2022/06/17 09:20:07;;;;;;;7.50;5.60;;;22.10;59.60;;;;;;5076221;28;20043;-47
2022/06/17 09:22:40;;;;;;;8.43;4.95;;;22.20;60.20;;;;;;5087712;28;20454;-46
2022/06/17 09:25:13;;;;;;;11.15;5.85;;;21.90;60.60;;;;;;5088151;28;20031;-45
2022/06/17 09:27:45;;;;;;;9.40;6.00;;;21.90;61.70;;;;;;5082923;28;20042;-47
2022/06/17 09:30:29;;;;;;;8.05;6.18;;;22.00;61.30;;;;;;5079934;28;20424;-46
2022/06/17 09:33:09;;;;;;;7.50;6.10;;;22.20;59.40;;;;;;5073538;28;20047;-46
2022/06/17 09:35:51;;;;;;;8.60;5.40;;;22.30;59.70;;;;;;5107971;28;20448;-46
2022/06/17 09:38:34;;;;;;;9.82;4.85;;;22.60;60.10;;;;;;5085580;28;20361;-47
2022/06/17 09:41:39;;;;;;;7.30;5.25;;;22.90;60.20;;;;;;5076154;28;20473;-47
2022/06/17 09:44:26;;;;;;;6.68;4.88;;;22.60;57.60;;;;;;5094541;28;20032;-50
2022/06/17 09:47:05;;;;;;;8.98;5.38;;;22.70;58.40;;;;;;5096804;28;20025;-46
2022/06/17 09:49:49;;;;;;;9.82;4.90;;;22.70;59.90;;;;;;5101227;28;20027;-46
2022/06/17 09:52:23;;;;;;;9.13;5.05;;;22.40;59.10;;;;;;5075798;28;20149;-46
2022/06/17 09:55:05;;;;;;;7.53;5.57;;;22.50;59.50;;;;;;5111238;28;20084;-50
2022/06/17 09:57:52;;;;;;;7.15;4.95;;;22.60;59.30;;;;;;5110480;28;20116;-46
2022/06/17 10:00:22;;;;;;;8.55;4.80;;;22.90;60.90;;;;;;5101648;28;20107;-47
2022/06/17 10:03:14;;;;;;;9.90;6.47;;;23.30;60.40;;;;;;5092896;28;20044;-47
2022/06/17 10:06:09;;;;;;;7.90;4.97;;;23.40;58.10;;;;;;5100728;28;20159;-46
2022/06/17 10:09:02;;;;;;;8.45;5.85;;;23.70;58.30;;;;;;5097864;28;20028;-46
2022/06/17 10:11:49;;;;;;;7.85;5.32;;;23.50;56.90;;;;;;5100781;28;20024;-46
2022/06/17 10:14:53;;;;;;;9.35;5.63;;;23.80;57.80;;;;;;5090929;28;20113;-48
2022/06/17 10:21:11;;;;;;;7.32;4.45;;;24.10;56.30;;;;;;5036195;27;20183;-47
2022/06/17 10:23:57;;;;;;;9.00;6.10;;;24.70;58.20;;;;;;5118174;27;20038;-47
2022/06/17 10:26:41;;;;;;;7.90;5.00;;;24.60;54.10;;;;;;5118912;27;20059;-49
2022/06/17 10:29:31;;;;;;;4.68;4.00;;;24.60;53.70;;;;;;5083990;28;20028;-46
2022/06/17 10:31:58;;;;;;;5.82;4.55;;;25.00;55.50;;;;;;5106398;28;20081;-46
2022/06/17 10:34:35;;;;;;;9.10;4.05;;;25.40;54.30;;;;;;5072907;28;20024;-47
2022/06/17 10:37:04;;;;;;;8.98;5.13;;;25.80;53.70;;;;;;5082829;28;20026;-46
2022/06/17 10:39:35;;;;;;;;;;;26.00;52.50;;;;;;5084071;28;20031;-48
2022/06/17 10:42:07;;;;;;;7.15;4.68;;;26.30;52.60;;;;;;5095145;27;19907;-46
2022/06/17 10:44:34;;;;;;;9.23;5.72;;;26.40;51.00;;;;;;5118981;27;20398;-47
2022/06/17 10:47:26;;;;;;;6.05;4.22;;;26.40;50.20;;;;;;5118473;27;20030;-46
2022/06/17 10:50:01;;;;;;;6.43;3.65;;;26.10;51.20;;;;;;5116951;27;20023;-47
2022/06/17 10:52:42;;;;;;;9.68;4.68;;;25.80;51.90;;;;;;5116341;27;20073;-48
2022/06/17 10:55:37;;;;;;;9.57;5.40;;;25.50;51.70;;;;;;5118807;27;20026;-46
2022/06/17 10:58:15;;;;;;;9.65;5.47;;;25.40;51.30;;;;;;5119207;27;20027;-46
2022/06/17 11:00:54;;;;;;;10.33;4.67;;;25.20;52.90;;;;;;5125339;27;20019;-46
2022/06/17 11:03:28;;;;;;;6.10;5.07;;;25.10;53.70;;;;;;5098106;27;20377;-46
2022/06/17 11:06:14;;;;;;;5.90;4.07;;;25.00;52.30;;;;;;5118634;27;20510;-47
2022/06/17 11:08:42;;;;;;;7.85;5.25;;;25.30;54.30;;;;;;5116644;27;20558;-47
2022/06/17 11:14:01;;;;;;;7.57;4.32;;;25.30;53.80;;;;;;5103576;27;20084;-47
2022/06/17 11:16:40;;;;;;;7.97;4.35;;;25.20;53.80;;;;;;5112279;27;20050;-46
2022/06/17 11:19:13;;;;;;;5.75;3.65;;;25.10;53.90;;;;;;5116457;27;20031;-46
2022/06/17 11:21:51;;;;;;;7.50;3.47;;;25.10;53.90;;;;;;5117023;27;20027;-46
2022/06/17 11:24:34;;;;;;;5.68;3.53;;;25.10;52.80;;;;;;5120488;27;20347;-47
2022/06/17 11:27:25;;;;;;;8.30;4.15;;;25.20;53.80;;;;;;5116161;27;20092;-48
2022/06/17 11:29:54;;;;;;;7.68;4.55;;;25.30;51.80;;;;;;5103543;27;20059;-48
2022/06/17 11:32:29;;;;;;;7.70;3.53;;;25.20;50.70;;;;;;5095656;28;20031;-46
2022/06/17 11:35:15;;;;;;;8.30;3.60;;;24.90;52.20;;;;;;5115799;27;20023;-47
2022/06/17 11:37:45;;;;;;;7.40;4.10;;;24.70;53.10;;;;;;5083123;28;20059;-49
2022/06/17 11:40:17;;;;;;;6.10;3.72;;;24.80;53.80;;;;;;5089583;28;20085;-46
2022/06/17 11:42:49;;;;;;;7.53;3.50;;;24.70;54.20;;;;;;5095934;28;20039;-46
2022/06/17 11:45:33;;;;;;;8.30;3.65;;;24.60;53.30;;;;;;5114807;27;20474;-46
2022/06/17 11:48:13;;;;;;;5.15;3.70;;;24.40;52.30;;;;;;5103554;27;20413;-48
2022/06/17 11:51:00;;;;;;;6.10;3.85;;;24.20;53.50;;;;;;5098784;27;20043;-46
2022/06/17 11:53:29;;;;;;;6.13;3.78;;;24.00;54.60;;;;;;5095785;28;20040;-46
2022/06/17 11:55:57;;;;;;;5.97;3.83;;;23.80;54.80;;;;;;5071185;28;20496;-47
2022/06/17 11:58:24;;;;;;;8.25;3.63;;;23.70;56.10;;;;;;5089968;28;20380;-48
2022/06/17 12:00:54;;;;;;;6.05;3.55;;;23.70;55.30;;;;;;5089976;28;20031;-46
2022/06/17 12:03:44;;;;;;;6.28;3.75;;;23.60;56.20;;;;;;5081483;28;20039;-48
2022/06/17 12:06:22;;;;;;;5.13;3.40;;;23.60;56.00;;;;;;5095058;27;20500;-48
2022/06/17 12:09:22;;;;;;;10.97;4.27;;;23.60;57.30;;;;;;5093243;28;20546;-46
2022/06/17 12:12:13;;;;;;;7.35;3.65;;;23.50;57.20;;;;;;5096698;27;20046;-50
2022/06/17 12:15:03;;;;;;;5.80;3.47;;;23.40;57.20;;;;;;5109339;27;20070;-49
2022/06/17 12:17:31;;;;;;;5.00;3.47;;;23.50;56.90;;;;;;5109278;27;20084;-46
2022/06/17 12:19:58;;;;;;;5.53;3.47;;;23.40;57.50;;;;;;5108784;28;20368;-46
2022/06/17 12:22:44;;;;;;;7.22;3.80;;;23.60;56.90;;;;;;5109242;28;20084;-47
2022/06/17 12:25:37;;;;;;;6.45;4.50;;;23.80;56.90;;;;;;5109201;28;20074;-46
2022/06/17 12:28:18;;;;;;;7.20;4.00;;;23.90;57.10;;;;;;5109648;27;20024;-45
2022/06/17 12:31:10;;;;;;;7.28;4.13;;;24.00;56.80;;;;;;5091297;28;20031;-46
2022/06/17 12:34:06;;;;;;;7.05;3.75;;;23.90;56.60;;;;;;5118285;27;20046;-46
2022/06/17 12:36:48;;;;;;;7.25;3.65;;;24.10;55.20;;;;;;5093995;28;20140;-46
2022/06/17 12:39:49;;;;;;;5.60;3.80;;;24.10;55.60;;;;;;5091112;28;20031;-45
2022/06/17 12:42:34;;;;;;;6.40;4.57;;;23.90;56.80;;;;;;5091198;28;20038;-46
2022/06/17 12:45:25;;;;;;;6.35;4.28;;;23.90;56.30;;;;;;5128321;27;20400;-47
2022/06/17 12:48:18;;;;;;;6.70;4.25;;;23.90;55.20;;;;;;5128350;27;20066;-46
2022/06/17 12:54:21;;;;;;;10.48;4.65;;;23.90;56.90;;;;;;5109034;28;20059;-47
2022/06/17 12:57:03;;;;;;;5.70;4.63;;;23.60;55.80;;;;;;5109207;28;20039;-47
2022/06/17 12:59:36;;;;;;;8.70;3.97;;;23.50;54.60;;;;;;5109415;28;20027;-49
2022/06/17 13:02:17;;;;;;;6.07;4.18;;;23.40;55.90;;;;;;5109036;28;20091;-45
2022/06/17 13:04:58;;;;;;;5.45;3.70;;;23.40;56.30;;;;;;5091394;28;20035;-46
2022/06/17 13:07:26;;;;;;;7.32;4.53;;;23.30;56.10;;;;;;5115375;28;20019;-46
2022/06/17 13:13:14;;;;;;;6.07;3.30;;;23.40;56.00;;;;;;5109108;28;20051;-48
2022/06/17 13:16:09;;;;;;;9.52;4.75;;;23.40;57.20;;;;;;5118484;28;20482;-46
2022/06/17 13:18:57;;;;;;;8.10;3.97;;;23.50;57.00;;;;;;5059596;28;20078;-48
2022/06/17 13:21:33;;;;;;;5.55;4.45;;;23.60;57.10;;;;;;5090894;28;20024;-46
2022/06/17 13:24:33;;;;;;;10.43;4.45;;;23.60;56.80;;;;;;5091238;28;20031;-47
2022/06/17 13:27:18;;;;;;;8.85;4.90;;;23.60;56.20;;;;;;5109191;28;20027;-46
2022/06/17 13:29:59;;;;;;;8.43;5.28;;;23.70;56.60;;;;;;5094161;28;20256;-48
2022/06/17 13:32:39;;;;;;;8.48;5.15;;;23.60;55.50;;;;;;5122343;28;20027;-47
2022/06/17 13:35:13;;;;;;;5.75;4.65;;;23.60;55.90;;;;;;5122346;28;20016;-47
2022/06/17 13:37:57;;;;;;;8.18;4.30;;;23.60;56.10;;;;;;5127197;28;20095;-46
2022/06/17 13:40:40;;;;;;;6.72;4.18;;;23.70;57.50;;;;;;5125164;28;20048;-46
2022/06/17 13:43:15;;;;;;;5.68;4.50;;;23.60;57.70;;;;;;5129552;28;20354;-47
2022/06/17 13:46:20;;;;;;;6.07;4.10;;;23.60;56.50;;;;;;5105134;28;20051;-46